Time;durP1;ratioP1;P1;durP2;ratioP2;P2;SDS_P1;SDS_P2;PMS_P1;PMS_P2;Temp;Humidity;BMP_temperature;BMP_pressure;BME280_temperature;BME280_humidity;BME280_pressure;Samples;Min_cycle;Max_cycle;Signal;HPM_P1;HPM_P2
2023/01/16 00:01:46;;;;;;;2.00;1.80;;;2.10;99.90;;;;;;5053084;28;20511;-51
2023/01/16 00:04:13;;;;;;;2.10;1.80;;;2.30;99.90;;;;;;5051518;28;21001;-53
2023/01/16 00:06:40;;;;;;;2.33;2.03;;;2.60;99.90;;;;;;5052598;28;20471;-51
2023/01/16 00:09:07;;;;;;;1.80;1.70;;;2.70;99.90;;;;;;5052193;28;20438;-51
2023/01/16 00:11:34;;;;;;;1.80;1.70;;;2.80;99.90;;;;;;5052607;28;20520;-51
2023/01/16 00:14:03;;;;;;;2.40;2.20;;;2.80;99.90;;;;;;5051459;28;20512;-51
2023/01/16 00:16:30;;;;;;;2.20;1.97;;;2.80;99.90;;;;;;5052735;28;20537;-51
2023/01/16 00:18:57;;;;;;;2.60;2.40;;;2.70;99.90;;;;;;5052650;28;20556;-51
2023/01/16 00:21:25;;;;;;;3.03;2.27;;;2.70;99.90;;;;;;5052145;28;20521;-51
2023/01/16 00:23:53;;;;;;;4.83;3.90;;;2.50;99.90;;;;;;5049392;28;20465;-54
2023/01/16 00:26:20;;;;;;;3.83;3.43;;;2.50;99.90;;;;;;5052372;28;20529;-52
2023/01/16 00:28:46;;;;;;;4.10;3.70;;;2.30;99.90;;;;;;5052368;28;20537;-53
2023/01/16 00:31:15;;;;;;;3.10;2.80;;;2.00;99.90;;;;;;5052116;28;20521;-51
2023/01/16 00:33:42;;;;;;;3.93;3.53;;;2.00;99.90;;;;;;5051866;28;20568;-51
2023/01/16 00:36:09;;;;;;;4.57;3.70;;;2.00;99.90;;;;;;5051395;28;20632;-51
2023/01/16 00:38:37;;;;;;;4.20;3.80;;;2.30;99.90;;;;;;5050156;28;20536;-51
2023/01/16 00:41:05;;;;;;;3.70;3.23;;;2.50;99.90;;;;;;5052323;28;20486;-51
2023/01/16 00:43:33;;;;;;;2.90;2.60;;;2.30;99.90;;;;;;5048609;28;20517;-52
2023/01/16 00:46:00;;;;;;;4.60;2.33;;;2.50;99.90;;;;;;5051776;28;20529;-52
2023/01/16 00:48:28;;;;;;;3.33;2.77;;;2.60;99.90;;;;;;5051561;28;20488;-51
2023/01/16 00:50:55;;;;;;;2.93;2.57;;;2.50;99.90;;;;;;5051822;28;20526;-51
2023/01/16 00:53:22;;;;;;;3.87;2.50;;;2.60;99.90;;;;;;5051136;28;20480;-51
2023/01/16 00:55:52;;;;;;;3.43;3.13;;;2.50;99.90;;;;;;5052879;28;20535;-51
2023/01/16 00:58:19;;;;;;;4.37;3.97;;;2.50;99.90;;;;;;5052623;28;20549;-52
2023/01/16 01:00:46;;;;;;;4.17;3.60;;;2.50;99.90;;;;;;5051746;28;20523;-51
2023/01/16 01:03:13;;;;;;;3.67;3.10;;;2.50;99.90;;;;;;5051405;28;20470;-52
2023/01/16 01:05:41;;;;;;;2.67;2.47;;;2.60;99.90;;;;;;5051525;28;20507;-51
2023/01/16 01:08:08;;;;;;;3.10;2.83;;;2.50;99.90;;;;;;5050446;28;20888;-51
2023/01/16 01:10:37;;;;;;;3.87;3.57;;;2.50;99.90;;;;;;5050637;28;20529;-51
2023/01/16 01:13:04;;;;;;;3.90;3.60;;;2.50;99.90;;;;;;5049273;28;20544;-51
2023/01/16 01:15:31;;;;;;;4.17;3.53;;;2.50;99.90;;;;;;5050093;28;20534;-51
2023/01/16 01:17:58;;;;;;;4.73;4.20;;;2.40;99.90;;;;;;5050282;28;20523;-51
2023/01/16 01:20:25;;;;;;;3.83;3.50;;;2.20;99.90;;;;;;5050090;28;20877;-51
2023/01/16 01:22:54;;;;;;;4.60;4.20;;;2.30;99.90;;;;;;5049874;28;20441;-51
2023/01/16 01:25:21;;;;;;;4.60;4.20;;;2.30;99.90;;;;;;5052306;28;20532;-51
2023/01/16 01:27:48;;;;;;;5.40;3.47;;;2.40;99.90;;;;;;5051861;28;20497;-52
2023/01/16 01:30:15;;;;;;;3.60;3.30;;;2.40;99.90;;;;;;5051055;28;20435;-51
2023/01/16 01:32:42;;;;;;;5.40;4.60;;;2.30;99.90;;;;;;5051098;28;20889;-51
2023/01/16 01:35:09;;;;;;;3.80;3.50;;;2.30;99.90;;;;;;5051128;28;20488;-53
2023/01/16 01:37:36;;;;;;;4.30;4.00;;;2.50;99.90;;;;;;5051228;28;20442;-51
2023/01/16 01:40:06;;;;;;;4.10;3.70;;;2.60;99.90;;;;;;5051488;28;20562;-53
2023/01/16 01:42:43;;;;;;;6.17;4.37;;;2.80;99.90;;;;;;5051676;28;20477;-53
2023/01/16 01:45:15;;;;;;;4.50;4.10;;;2.90;99.90;;;;;;5050672;28;20533;-51
2023/01/16 01:47:48;;;;;;;4.20;3.90;;;3.00;99.90;;;;;;5049174;28;20444;-51
2023/01/16 01:50:21;;;;;;;6.10;5.60;;;3.10;99.90;;;;;;5051520;28;20454;-51
2023/01/16 01:52:55;;;;;;;4.43;3.97;;;3.00;99.90;;;;;;5050526;28;20533;-54
2023/01/16 01:55:23;;;;;;;5.60;5.10;;;3.00;99.90;;;;;;5049318;28;20541;-51
2023/01/16 01:57:55;;;;;;;4.63;3.83;;;3.10;99.90;;;;;;5049748;28;21041;-52
2023/01/16 02:00:25;;;;;;;4.67;4.20;;;3.20;99.90;;;;;;5049194;28;20699;-51
2023/01/16 02:03:00;;;;;;;4.50;4.00;;;3.30;99.90;;;;;;5049318;28;20442;-55
2023/01/16 02:05:29;;;;;;;4.80;4.37;;;3.30;99.90;;;;;;5049221;28;20973;-52
2023/01/16 02:07:58;;;;;;;4.40;4.00;;;3.00;99.90;;;;;;5049419;28;20534;-51
2023/01/16 02:10:33;;;;;;;4.10;3.73;;;3.10;99.90;;;;;;5050533;28;20898;-51
2023/01/16 02:13:01;;;;;;;4.70;4.30;;;3.00;99.90;;;;;;5049541;28;20549;-51
2023/01/16 02:15:29;;;;;;;4.70;4.30;;;2.90;99.90;;;;;;5049792;28;20470;-51
2023/01/16 02:20:51;;;;;;;4.40;4.00;;;3.00;99.90;;;;;;5049290;28;20512;-51
2023/01/16 02:23:54;;;;;;;4.60;4.30;;;3.00;99.90;;;;;;5048999;28;20530;-53
2023/01/16 02:26:44;;;;;;;4.67;4.20;;;3.00;99.90;;;;;;5018736;28;20627;-52
2023/01/16 02:29:48;;;;;;;4.67;4.17;;;2.80;99.90;;;;;;5048720;28;21037;-51
2023/01/16 02:32:32;;;;;;;4.50;4.10;;;2.80;99.90;;;;;;5037375;28;20478;-51
2023/01/16 02:35:14;;;;;;;4.43;4.03;;;2.70;99.90;;;;;;5046993;28;20475;-51
2023/01/16 02:37:48;;;;;;;6.10;4.80;;;2.90;99.90;;;;;;5048539;28;20523;-52
2023/01/16 02:40:28;;;;;;;5.60;5.10;;;2.80;99.90;;;;;;5048890;28;20566;-52
2023/01/16 02:43:05;;;;;;;4.30;3.90;;;2.90;99.90;;;;;;5048334;28;20501;-52
2023/01/16 02:45:43;;;;;;;4.87;4.47;;;3.00;99.90;;;;;;5049367;28;20469;-51
2023/01/16 02:48:21;;;;;;;5.23;4.83;;;2.90;99.90;;;;;;5047956;28;20448;-51
2023/01/16 02:50:56;;;;;;;4.07;3.73;;;2.80;99.90;;;;;;5049721;28;20478;-51
2023/01/16 02:53:29;;;;;;;5.07;4.50;;;2.90;99.90;;;;;;5049926;28;20457;-51
2023/01/16 02:56:02;;;;;;;5.60;5.10;;;2.90;99.90;;;;;;5050210;28;20530;-53
2023/01/16 02:58:32;;;;;;;6.23;5.13;;;2.80;99.90;;;;;;5050388;28;20523;-51
2023/01/16 03:01:00;;;;;;;5.60;5.20;;;2.70;99.90;;;;;;5050152;28;20526;-52
2023/01/16 03:03:40;;;;;;;6.20;5.60;;;2.80;99.90;;;;;;5050205;28;20498;-51
2023/01/16 03:06:20;;;;;;;6.40;5.77;;;2.50;99.90;;;;;;5050955;28;20537;-51
2023/01/16 03:08:54;;;;;;;7.33;6.73;;;2.40;99.90;;;;;;5051054;28;20981;-51
2023/01/16 03:11:25;;;;;;;7.10;6.40;;;2.10;99.90;;;;;;5054013;28;20517;-51
2023/01/16 03:14:21;;;;;;;8.27;7.47;;;2.20;99.90;;;;;;5052883;28;20526;-51
2023/01/16 03:17:14;;;;;;;7.90;6.10;;;2.30;99.90;;;;;;5053765;28;20478;-51
2023/01/16 03:19:57;;;;;;;7.37;6.67;;;2.40;99.90;;;;;;5053005;28;20516;-51
2023/01/16 03:22:30;;;;;;;8.83;7.80;;;2.60;99.90;;;;;;5052447;28;20877;-52
2023/01/16 03:25:09;;;;;;;7.33;6.63;;;2.60;99.90;;;;;;5051753;28;20548;-51
2023/01/16 03:27:45;;;;;;;6.70;6.10;;;2.40;99.90;;;;;;5052465;28;20445;-51
2023/01/16 03:30:20;;;;;;;8.33;7.10;;;2.50;99.90;;;;;;5052507;28;20467;-51
2023/01/16 03:32:53;;;;;;;7.40;6.70;;;2.60;99.90;;;;;;5052612;28;20905;-51
2023/01/16 03:35:29;;;;;;;6.50;5.90;;;2.70;99.90;;;;;;5053899;28;20492;-52
2023/01/16 03:37:58;;;;;;;6.87;6.23;;;2.80;99.90;;;;;;5044766;28;20443;-52
2023/01/16 03:40:29;;;;;;;6.90;5.53;;;2.90;99.90;;;;;;5053225;28;20981;-51
2023/01/16 03:43:01;;;;;;;7.53;6.60;;;2.80;99.90;;;;;;5051858;28;20542;-53
2023/01/16 03:45:36;;;;;;;7.23;6.57;;;2.80;99.90;;;;;;5051984;28;20958;-51
2023/01/16 03:48:07;;;;;;;7.13;6.17;;;2.80;99.90;;;;;;5051188;28;20869;-53
2023/01/16 03:50:36;;;;;;;7.60;6.90;;;2.60;99.90;;;;;;5052066;28;20444;-51
2023/01/16 03:53:08;;;;;;;6.80;6.20;;;2.70;99.90;;;;;;5051060;28;20497;-52
2023/01/16 03:55:41;;;;;;;6.33;5.57;;;2.70;99.90;;;;;;5052008;28;20490;-51
2023/01/16 03:58:12;;;;;;;7.17;6.03;;;2.40;99.90;;;;;;5052618;28;20525;-51
2023/01/16 04:00:47;;;;;;;7.67;6.87;;;2.40;99.90;;;;;;5052991;28;20558;-53
2023/01/16 04:03:22;;;;;;;7.27;6.57;;;2.50;99.90;;;;;;5052778;28;20536;-51
2023/01/16 04:05:55;;;;;;;7.80;6.67;;;2.70;99.90;;;;;;5053355;28;21021;-51
2023/01/16 04:08:28;;;;;;;6.03;5.53;;;2.70;99.90;;;;;;5052276;28;20963;-52
2023/01/16 04:10:55;;;;;;;8.47;7.60;;;2.80;99.90;;;;;;5043333;28;20447;-52
2023/01/16 04:13:26;;;;;;;6.70;6.10;;;2.70;99.90;;;;;;5051085;28;20549;-53
2023/01/16 04:15:57;;;;;;;6.43;5.83;;;2.60;99.90;;;;;;5052618;28;20537;-51
2023/01/16 04:18:30;;;;;;;4.30;3.90;;;2.70;99.90;;;;;;5053078;28;21019;-51
2023/01/16 04:20:58;;;;;;;3.07;2.77;;;2.80;99.90;;;;;;5051959;28;20480;-54
2023/01/16 04:23:25;;;;;;;2.63;2.43;;;2.80;99.90;;;;;;5051069;28;20537;-52
2023/01/16 04:25:52;;;;;;;2.43;2.23;;;2.80;99.90;;;;;;5051004;28;20537;-51
2023/01/16 04:28:19;;;;;;;2.23;2.03;;;2.80;99.90;;;;;;5051175;28;20478;-51
2023/01/16 04:30:46;;;;;;;2.00;1.80;;;2.60;99.90;;;;;;5051274;28;21036;-51
2023/01/16 04:33:13;;;;;;;2.30;2.07;;;2.50;99.90;;;;;;5050125;28;20554;-51
2023/01/16 04:35:39;;;;;;;3.40;2.70;;;2.50;99.90;;;;;;5051528;28;20467;-53
2023/01/16 04:38:08;;;;;;;3.23;2.57;;;2.30;99.90;;;;;;5052251;28;20527;-51
2023/01/16 04:40:35;;;;;;;3.70;3.40;;;2.20;99.90;;;;;;5052542;28;20503;-51
2023/01/16 04:43:01;;;;;;;3.20;2.90;;;2.30;99.90;;;;;;5051777;28;20965;-51
2023/01/16 04:45:28;;;;;;;5.03;3.63;;;2.30;99.90;;;;;;5052066;28;20470;-51
2023/01/16 04:47:55;;;;;;;2.77;2.57;;;2.30;99.90;;;;;;5049849;28;20958;-51
2023/01/16 04:50:22;;;;;;;3.80;2.83;;;2.40;99.90;;;;;;5051005;28;20695;-51
2023/01/16 04:52:49;;;;;;;3.43;2.90;;;2.40;99.90;;;;;;5050986;28;20522;-51
2023/01/16 04:55:18;;;;;;;2.30;1.97;;;2.40;99.90;;;;;;5050000;28;20482;-52
2023/01/16 04:57:45;;;;;;;4.90;4.40;;;2.10;99.90;;;;;;5050426;28;20822;-52
2023/01/16 05:00:13;;;;;;;3.90;3.03;;;2.10;99.90;;;;;;5050790;28;20523;-51
2023/01/16 05:02:40;;;;;;;3.97;2.93;;;2.10;99.90;;;;;;5051337;28;20446;-52
2023/01/16 05:05:07;;;;;;;2.60;2.40;;;1.90;99.90;;;;;;5051349;28;21035;-51
2023/01/16 05:07:34;;;;;;;3.90;3.00;;;1.90;99.90;;;;;;5051694;28;20474;-50
2023/01/16 05:10:01;;;;;;;3.53;2.90;;;1.80;99.90;;;;;;5052030;28;20481;-51
2023/01/16 05:12:29;;;;;;;3.27;2.83;;;1.90;99.90;;;;;;5051579;28;20524;-52
2023/01/16 05:14:56;;;;;;;5.10;3.00;;;1.90;99.90;;;;;;5051129;28;20548;-50
2023/01/16 05:17:24;;;;;;;3.07;2.80;;;2.00;99.90;;;;;;5051667;28;20958;-51
2023/01/16 05:19:51;;;;;;;4.40;3.10;;;2.00;99.90;;;;;;5051303;28;21001;-50
2023/01/16 05:22:19;;;;;;;6.10;4.47;;;2.00;99.90;;;;;;5049869;28;20474;-52
2023/01/16 05:24:45;;;;;;;4.23;3.20;;;2.10;99.90;;;;;;5049333;28;20885;-51
2023/01/16 05:27:12;;;;;;;4.87;3.47;;;2.20;99.90;;;;;;5049169;28;20469;-52
2023/01/16 05:29:41;;;;;;;4.87;3.70;;;2.10;99.90;;;;;;5049617;28;20489;-52
2023/01/16 05:32:08;;;;;;;7.00;3.80;;;1.90;99.90;;;;;;5048791;28;20480;-51
2023/01/16 05:34:34;;;;;;;3.87;3.47;;;1.90;99.90;;;;;;5048939;28;20468;-51
2023/01/16 05:37:01;;;;;;;4.27;3.57;;;1.70;99.90;;;;;;5050929;28;20470;-52
2023/01/16 05:39:28;;;;;;;3.23;2.90;;;1.70;99.90;;;;;;5050743;28;20478;-51
2023/01/16 05:41:55;;;;;;;3.80;3.40;;;1.90;99.90;;;;;;5049103;28;20583;-51
2023/01/16 05:44:22;;;;;;;4.90;4.50;;;1.80;99.90;;;;;;5048510;28;20548;-51
2023/01/16 05:46:51;;;;;;;4.50;3.50;;;1.70;99.90;;;;;;5036088;28;20460;-51
2023/01/16 05:49:18;;;;;;;8.03;7.13;;;1.70;99.90;;;;;;5049655;28;20852;-51
2023/01/16 05:51:45;;;;;;;4.17;3.30;;;1.80;99.90;;;;;;5046915;28;20438;-51
2023/01/16 05:54:12;;;;;;;2.53;2.20;;;1.90;99.90;;;;;;5048843;28;20469;-52
2023/01/16 05:56:39;;;;;;;3.40;3.10;;;1.90;99.90;;;;;;5050348;28;20822;-51
2023/01/16 05:59:06;;;;;;;3.07;2.77;;;1.80;99.90;;;;;;5049270;28;20452;-50
2023/01/16 06:01:33;;;;;;;3.13;1.87;;;1.90;99.90;;;;;;5054374;28;20501;-51
2023/01/16 06:04:02;;;;;;;2.87;2.60;;;1.80;99.90;;;;;;5046783;28;20520;-51
2023/01/16 06:06:29;;;;;;;3.27;2.63;;;1.70;99.90;;;;;;5041087;28;20527;-51
2023/01/16 06:08:55;;;;;;;2.33;2.13;;;1.50;99.90;;;;;;5042077;28;20496;-52
2023/01/16 06:11:22;;;;;;;4.50;3.40;;;1.20;99.90;;;;;;5043273;28;21010;-50
2023/01/16 06:13:49;;;;;;;4.50;3.90;;;1.20;99.90;;;;;;5044834;28;20516;-50
2023/01/16 06:16:16;;;;;;;4.07;3.57;;;1.30;99.90;;;;;;5040739;28;20521;-50
2023/01/16 06:18:43;;;;;;;3.00;2.70;;;1.20;99.90;;;;;;5031015;28;20489;-52
2023/01/16 06:21:11;;;;;;;3.63;2.27;;;1.00;99.90;;;;;;5033548;28;20512;-50
2023/01/16 06:23:38;;;;;;;3.37;3.07;;;1.10;99.90;;;;;;5040013;28;20537;-53
2023/01/16 06:26:09;;;;;;;2.33;2.13;;;1.20;99.90;;;;;;5041571;28;20461;-52
2023/01/16 06:28:36;;;;;;;1.67;1.57;;;1.30;99.90;;;;;;5041875;28;20435;-50
2023/01/16 06:31:03;;;;;;;2.10;1.13;;;1.40;99.90;;;;;;5047721;28;20541;-51
2023/01/16 06:33:30;;;;;;;3.27;2.97;;;1.10;99.90;;;;;;5050422;28;20497;-50
2023/01/16 06:35:57;;;;;;;4.53;2.83;;;1.20;99.90;;;;;;5051044;28;20524;-52
2023/01/16 06:38:25;;;;;;;4.77;2.77;;;1.00;99.90;;;;;;5050737;28;20519;-50
2023/01/16 06:40:55;;;;;;;2.60;2.40;;;1.10;99.90;;;;;;5050899;28;20557;-50
2023/01/16 06:43:23;;;;;;;2.63;1.97;;;1.10;99.90;;;;;;5035714;28;20458;-50
2023/01/16 06:45:50;;;;;;;2.83;2.47;;;0.90;99.90;;;;;;5034946;28;21014;-51
2023/01/16 06:48:17;;;;;;;3.67;2.97;;;1.10;99.90;;;;;;5033150;28;20535;-50
2023/01/16 06:50:44;;;;;;;2.67;1.90;;;1.30;99.90;;;;;;5034881;28;20838;-53
2023/01/16 06:53:11;;;;;;;1.57;1.10;;;1.30;99.90;;;;;;5034166;28;20554;-50
2023/01/16 06:55:40;;;;;;;1.40;1.10;;;1.50;99.90;;;;;;5053610;28;20536;-50
2023/01/16 06:58:08;;;;;;;1.20;1.00;;;1.40;99.90;;;;;;5055031;28;20501;-50
2023/01/16 07:00:35;;;;;;;1.00;0.70;;;1.20;99.90;;;;;;5054466;28;20538;-51
2023/01/16 07:03:02;;;;;;;0.90;0.60;;;1.20;99.90;;;;;;5052418;28;20477;-52
2023/01/16 07:05:31;;;;;;;1.17;0.90;;;1.00;99.90;;;;;;5052787;28;20517;-51
2023/01/16 07:07:58;;;;;;;2.50;1.50;;;1.30;99.90;;;;;;5052467;28;20950;-50
2023/01/16 07:10:25;;;;;;;1.10;0.90;;;1.30;99.90;;;;;;5053213;28;20476;-52
2023/01/16 07:12:54;;;;;;;1.00;0.70;;;1.20;99.90;;;;;;5052567;28;20517;-51
2023/01/16 07:23:44;;;;;;;1.43;1.17;;;1.30;99.90;;;;;;5053286;28;20526;-50
2023/01/16 07:26:13;;;;;;;1.20;1.10;;;1.30;99.90;;;;;;5053622;28;20521;-50
2023/01/16 07:28:42;;;;;;;1.40;1.20;;;1.20;99.90;;;;;;5054770;28;20437;-52
2023/01/16 07:31:09;;;;;;;1.53;1.30;;;1.10;99.90;;;;;;5054902;28;20484;-50
2023/01/16 07:33:36;;;;;;;1.10;1.00;;;1.20;99.90;;;;;;5053522;28;20499;-50
2023/01/16 07:36:03;;;;;;;1.93;0.90;;;1.30;99.90;;;;;;5054225;28;20538;-50
2023/01/16 07:38:30;;;;;;;2.33;1.43;;;1.10;99.90;;;;;;5054266;28;20531;-50
2023/01/16 07:40:58;;;;;;;4.50;1.00;;;1.00;99.90;;;;;;5054019;28;20576;-50
2023/01/16 07:43:25;;;;;;;1.10;0.73;;;0.90;99.90;;;;;;5052946;28;20864;-50
2023/01/16 07:45:53;;;;;;;5.70;3.03;;;0.90;99.90;;;;;;5053791;28;20473;-50
2023/01/16 07:48:20;;;;;;;3.00;2.67;;;0.10;99.90;;;;;;5052419;28;20528;-50
2023/01/16 07:50:52;;;;;;;1.70;1.37;;;0.10;99.90;;;;;;5054188;28;20524;-53
2023/01/16 07:53:22;;;;;;;1.53;1.00;;;0.10;99.90;;;;;;5069107;22;20440;-48
2023/01/16 07:55:50;;;;;;;1.40;1.00;;;0.40;99.90;;;;;;5053692;28;20970;-47
2023/01/16 07:58:17;;;;;;;1.40;1.10;;;0.60;99.90;;;;;;5053836;28;20438;-47
2023/01/16 08:00:44;;;;;;;1.77;1.33;;;0.80;99.90;;;;;;5053681;28;20433;-50
2023/01/16 08:03:13;;;;;;;1.17;0.60;;;1.00;99.90;;;;;;5052575;28;20522;-47
2023/01/16 08:05:40;;;;;;;2.10;0.90;;;1.20;99.90;;;;;;5053538;28;20990;-47
2023/01/16 08:08:07;;;;;;;0.90;0.50;;;1.10;99.90;;;;;;5053164;28;20529;-48
2023/01/16 08:10:34;;;;;;;1.33;0.80;;;1.00;99.90;;;;;;5053524;28;20492;-47
2023/01/16 08:13:01;;;;;;;1.30;0.80;;;1.00;99.90;;;;;;5052813;28;20557;-49
2023/01/16 08:15:28;;;;;;;5.63;2.00;;;0.90;99.90;;;;;;5053091;28;20449;-47
2023/01/16 08:17:55;;;;;;;1.30;1.20;;;1.10;99.90;;;;;;5053299;28;20533;-47
2023/01/16 08:20:24;;;;;;;1.40;1.10;;;1.00;99.90;;;;;;5053486;28;20537;-47
2023/01/16 08:22:52;;;;;;;1.30;1.00;;;1.10;99.90;;;;;;5052310;28;20509;-46
2023/01/16 08:25:21;;;;;;;1.50;1.00;;;0.90;99.90;;;;;;5053238;28;20478;-47
2023/01/16 08:27:48;;;;;;;1.70;1.40;;;0.80;99.90;;;;;;5053325;28;20446;-47
2023/01/16 08:30:16;;;;;;;1.30;1.00;;;0.70;99.90;;;;;;5052995;28;20478;-47
2023/01/16 08:32:43;;;;;;;1.00;0.80;;;0.70;99.90;;;;;;5053013;28;20516;-47
2023/01/16 08:35:11;;;;;;;1.33;1.23;;;0.70;99.90;;;;;;5051899;28;20536;-48
2023/01/16 08:37:39;;;;;;;0.90;0.50;;;0.80;99.90;;;;;;5052854;28;20521;-47
2023/01/16 08:40:07;;;;;;;0.90;0.60;;;1.00;99.90;;;;;;5052907;28;20946;-47
2023/01/16 08:53:34;;;;;;;1.33;0.53;;;0.80;99.90;;;;;;5051906;28;20480;-50
2023/01/16 08:56:01;;;;;;;1.10;0.60;;;0.90;99.90;;;;;;5052577;28;20889;-46
2023/01/16 08:58:28;;;;;;;1.13;0.90;;;1.00;99.90;;;;;;5052802;28;20442;-47
2023/01/16 09:00:55;;;;;;;1.00;0.80;;;1.00;99.90;;;;;;5052478;28;20488;-47
2023/01/16 09:03:22;;;;;;;0.90;0.70;;;1.00;99.90;;;;;;5051768;28;20912;-47
2023/01/16 09:05:49;;;;;;;1.00;0.80;;;1.10;99.90;;;;;;5051425;28;20474;-48
2023/01/16 09:08:16;;;;;;;0.90;0.80;;;0.90;99.90;;;;;;5052680;28;20528;-47
2023/01/16 09:13:48;;;;;;;1.50;1.30;;;0.70;99.90;;;;;;5051134;28;20931;-47
2023/01/16 09:13:48;;;;;;;2.37;2.17;;;0.60;99.90;;;;;;5050050;28;20454;-47
2023/01/16 09:16:15;;;;;;;2.40;2.20;;;0.60;99.90;;;;;;5050632;28;20790;-47
2023/01/16 09:18:42;;;;;;;2.73;1.50;;;0.50;99.90;;;;;;5051629;28;20477;-47
2023/01/16 09:21:09;;;;;;;1.60;1.20;;;0.20;99.90;;;;;;5051884;28;20528;-48
2023/01/16 09:23:36;;;;;;;2.90;1.90;;;0.00;99.90;;;;;;5050493;28;20566;-47
2023/01/16 09:26:04;;;;;;;1.47;1.37;;;0.20;99.90;;;;;;5051504;28;20533;-47
2023/01/16 09:28:31;;;;;;;2.70;1.33;;;0.40;99.90;;;;;;5052232;28;20529;-48
2023/01/16 09:30:58;;;;;;;2.20;1.77;;;0.50;99.90;;;;;;5051729;28;20531;-47
2023/01/16 09:33:25;;;;;;;1.70;1.50;;;0.60;99.90;;;;;;5051412;28;20501;-47
2023/01/16 09:35:52;;;;;;;2.27;2.03;;;0.80;99.90;;;;;;5051642;28;20553;-50
2023/01/16 09:38:19;;;;;;;1.90;1.40;;;0.60;99.90;;;;;;5051804;28;20495;-47
2023/01/16 09:40:49;;;;;;;2.87;2.37;;;0.80;99.90;;;;;;5052170;28;20466;-47
2023/01/16 09:43:37;;;;;;;2.60;2.17;;;0.60;99.90;;;;;;5050952;28;20481;-47
2023/01/16 09:46:09;;;;;;;2.37;1.90;;;0.60;99.90;;;;;;5051819;28;20529;-49
2023/01/16 09:48:39;;;;;;;1.37;1.27;;;0.40;99.90;;;;;;5050274;28;20470;-47
2023/01/16 09:51:11;;;;;;;1.47;1.03;;;0.30;99.90;;;;;;5051580;28;20528;-47
2023/01/16 09:59:27;;;;;;;0.90;0.60;;;0.80;99.90;;;;;;5051415;28;20425;-47
2023/01/16 10:02:00;;;;;;;1.70;0.90;;;0.90;99.90;;;;;;5051373;28;20523;-47
2023/01/16 10:04:30;;;;;;;1.30;1.20;;;1.10;99.90;;;;;;5050393;28;20497;-47
2023/01/16 10:07:22;;;;;;;1.53;1.20;;;1.10;99.90;;;;;;5051372;28;20446;-47
2023/01/16 10:09:57;;;;;;;1.53;1.07;;;1.10;99.90;;;;;;5050806;28;20889;-47
2023/01/16 10:12:31;;;;;;;2.23;1.07;;;1.10;99.90;;;;;;5049820;28;20532;-47
2023/01/16 10:15:18;;;;;;;1.40;1.00;;;1.30;99.90;;;;;;5049220;28;20545;-47
2023/01/16 10:17:56;;;;;;;1.30;0.50;;;1.50;99.90;;;;;;5049252;28;20451;-48
2023/01/16 10:20:42;;;;;;;2.60;1.30;;;1.90;99.90;;;;;;5050533;28;20441;-47
2023/01/16 10:23:23;;;;;;;1.13;0.70;;;2.00;99.90;;;;;;5049400;28;20931;-47
2023/01/16 10:25:57;;;;;;;0.90;0.70;;;1.70;99.90;;;;;;5051074;28;20462;-45
2023/01/16 10:28:36;;;;;;;1.00;0.70;;;1.90;99.90;;;;;;5051082;28;20442;-47
2023/01/16 10:31:10;;;;;;;1.30;0.90;;;2.10;99.90;;;;;;5050960;28;20853;-48
2023/01/16 10:33:46;;;;;;;1.00;0.90;;;2.20;99.90;;;;;;5050300;28;21215;-47
2023/01/16 10:36:16;;;;;;;0.90;0.70;;;2.00;99.90;;;;;;5051002;28;21133;-47
2023/01/16 10:38:46;;;;;;;0.90;0.50;;;2.00;99.90;;;;;;5051172;28;20499;-47
2023/01/16 10:49:33;;;;;;;5.60;3.97;;;2.60;99.90;;;;;;5017393;28;20805;-47
2023/01/16 10:52:03;;;;;;;1.70;1.30;;;2.70;99.90;;;;;;5051022;28;20525;-47
2023/01/16 10:54:30;;;;;;;1.50;0.97;;;2.90;99.90;;;;;;5049875;28;21013;-47
2023/01/16 10:57:01;;;;;;;1.23;1.00;;;3.10;99.90;;;;;;5050666;28;20529;-47
2023/01/16 10:59:30;;;;;;;1.30;0.90;;;3.10;99.90;;;;;;5050618;28;20934;-47
2023/01/16 11:02:05;;;;;;;1.43;0.70;;;3.10;99.90;;;;;;5049191;28;20533;-47
2023/01/16 11:04:35;;;;;;;2.37;0.80;;;3.00;99.90;;;;;;5041687;28;20524;-47
2023/01/16 11:07:15;;;;;;;1.83;0.70;;;3.10;99.90;;;;;;5049858;28;21041;-47
2023/01/16 11:09:45;;;;;;;1.50;1.00;;;3.10;99.90;;;;;;5048158;28;20462;-50
2023/01/16 11:20:39;;;;;;;1.20;0.80;;;3.00;99.90;;;;;;5050434;28;20422;-47
2023/01/16 11:23:16;;;;;;;1.83;0.90;;;3.20;99.90;;;;;;5049315;28;20483;-47
2023/01/16 11:25:44;;;;;;;1.13;0.70;;;3.40;99.90;;;;;;5049157;28;20490;-47
2023/01/16 11:28:20;;;;;;;1.00;0.60;;;3.40;99.90;;;;;;5049225;28;20450;-47
2023/01/16 11:30:48;;;;;;;1.80;0.70;;;3.60;99.90;;;;;;5053082;28;20574;-47
2023/01/16 11:33:19;;;;;;;1.00;0.83;;;3.70;99.90;;;;;;5051306;28;20984;-47
2023/01/16 11:35:52;;;;;;;1.50;0.90;;;3.40;99.90;;;;;;5051173;28;20443;-47
2023/01/16 11:38:19;;;;;;;0.90;0.63;;;3.70;99.90;;;;;;5049373;28;20542;-48
2023/01/16 11:40:49;;;;;;;0.90;0.60;;;3.70;99.90;;;;;;5051513;28;20526;-47
2023/01/16 11:46:11;;;;;;;1.37;0.70;;;3.60;99.90;;;;;;5050298;28;20422;-47
2023/01/16 11:48:42;;;;;;;1.10;0.50;;;3.70;99.90;;;;;;5049515;28;20469;-47
2023/01/16 11:51:13;;;;;;;2.13;1.50;;;3.90;99.90;;;;;;5052451;28;20498;-47
2023/01/16 11:53:40;;;;;;;2.13;1.10;;;3.80;99.90;;;;;;5035763;28;20469;-48
2023/01/16 11:56:20;;;;;;;1.33;0.90;;;3.90;99.90;;;;;;5039489;28;20475;-47
2023/01/16 11:59:06;;;;;;;2.40;1.50;;;3.90;99.90;;;;;;5053822;28;21008;-47
2023/01/16 12:04:25;;;;;;;2.23;0.90;;;3.90;99.90;;;;;;5051724;28;21213;-47
2023/01/16 12:07:02;;;;;;;0.90;0.50;;;3.80;99.90;;;;;;5053498;28;20535;-47
2023/01/16 12:09:38;;;;;;;0.90;0.70;;;3.90;99.90;;;;;;5053953;28;20525;-47
2023/01/16 12:15:23;;;;;;;1.43;0.80;;;3.90;99.90;;;;;;5050831;28;20577;-46
2023/01/16 12:18:04;;;;;;;1.40;1.30;;;3.90;99.90;;;;;;5052348;28;20452;-49
2023/01/16 12:20:39;;;;;;;2.80;1.70;;;3.80;99.90;;;;;;5052898;28;20519;-47
2023/01/16 12:23:30;;;;;;;2.33;2.10;;;3.80;99.90;;;;;;5052028;28;20577;-47
2023/01/16 12:26:08;;;;;;;2.27;1.80;;;3.80;99.90;;;;;;5033243;28;20494;-47
2023/01/16 12:28:47;;;;;;;2.30;1.30;;;3.80;99.90;;;;;;5035649;28;20480;-48
2023/01/16 12:31:36;;;;;;;3.67;1.37;;;3.90;99.90;;;;;;5053120;28;20437;-48
2023/01/16 12:34:35;;;;;;;2.37;1.37;;;3.90;99.90;;;;;;5040517;28;20464;-50
2023/01/16 12:37:20;;;;;;;1.73;1.40;;;3.90;99.90;;;;;;5049666;28;20486;-47
2023/01/16 12:39:55;;;;;;;1.50;1.30;;;3.70;99.90;;;;;;5033017;28;20468;-47
2023/01/16 12:45:33;;;;;;;2.50;1.27;;;4.00;99.90;;;;;;5032644;28;20423;-49
2023/01/16 12:48:23;;;;;;;2.23;1.50;;;3.90;99.90;;;;;;5033233;28;20487;-48
2023/01/16 12:51:03;;;;;;;2.30;1.40;;;4.10;99.90;;;;;;5031132;28;20448;-47
2023/01/16 12:53:54;;;;;;;1.67;0.90;;;4.20;99.90;;;;;;5032384;28;20912;-48
2023/01/16 12:56:35;;;;;;;1.53;1.10;;;4.50;99.90;;;;;;5032739;28;20538;-48
2023/01/16 12:59:11;;;;;;;2.27;1.40;;;4.70;99.90;;;;;;5032525;28;20531;-47
2023/01/16 13:01:42;;;;;;;1.70;1.30;;;4.80;99.90;;;;;;5032707;28;20489;-47
2023/01/16 13:04:16;;;;;;;1.20;1.10;;;4.90;99.90;;;;;;5032030;28;20500;-47
2023/01/16 13:06:47;;;;;;;1.27;0.97;;;4.90;99.90;;;;;;5032195;28;20478;-49
2023/01/16 13:09:23;;;;;;;3.20;1.50;;;4.90;99.90;;;;;;5032786;28;20529;-47
2023/01/16 13:14:48;;;;;;;1.20;1.00;;;4.70;99.90;;;;;;5031271;28;20567;-47
2023/01/16 13:17:20;;;;;;;2.03;1.67;;;4.70;99.90;;;;;;5031141;28;20468;-47
2023/01/16 13:19:49;;;;;;;1.93;1.60;;;4.90;99.90;;;;;;5030912;28;20514;-49
2023/01/16 13:22:24;;;;;;;3.97;1.80;;;4.90;99.90;;;;;;5030721;28;20453;-47
2023/01/16 13:24:56;;;;;;;1.50;1.30;;;4.80;99.90;;;;;;5028909;28;20468;-49
2023/01/16 13:27:33;;;;;;;1.97;1.40;;;4.80;99.90;;;;;;5030895;28;20474;-47
2023/01/16 13:30:04;;;;;;;3.10;1.80;;;4.80;99.90;;;;;;5031227;28;20446;-47
2023/01/16 13:32:35;;;;;;;2.70;2.37;;;4.80;99.90;;;;;;5032589;28;20536;-47
2023/01/16 13:35:08;;;;;;;2.10;1.80;;;4.60;99.90;;;;;;5031302;28;20507;-47
2023/01/16 13:37:59;;;;;;;3.77;1.60;;;4.60;99.90;;;;;;5032297;28;20538;-48
2023/01/16 13:40:40;;;;;;;3.30;1.83;;;4.50;99.90;;;;;;5031989;28;20546;-47
2023/01/16 13:45:58;;;;;;;1.80;1.33;;;4.60;99.90;;;;;;5031720;28;20814;-47
2023/01/16 13:48:30;;;;;;;1.90;1.10;;;4.60;99.90;;;;;;5031861;28;20504;-48
2023/01/16 13:51:00;;;;;;;1.40;1.10;;;4.60;99.90;;;;;;5029837;28;20935;-48
2023/01/16 13:56:06;;;;;;;1.93;1.73;;;4.70;99.90;;;;;;5072573;28;20826;-51
2023/01/16 13:58:37;;;;;;;3.13;1.57;;;4.90;99.90;;;;;;5075226;28;20487;-51
2023/01/16 14:01:06;;;;;;;2.13;1.77;;;5.00;99.90;;;;;;5074689;28;20531;-51
2023/01/16 14:03:35;;;;;;;1.93;1.33;;;5.10;99.90;;;;;;5074091;28;20478;-51
2023/01/16 14:06:20;;;;;;;6.50;1.50;;;5.30;99.90;;;;;;5074302;28;20468;-52
2023/01/16 14:09:05;;;;;;;3.93;1.63;;;5.30;99.90;;;;;;5073986;28;20531;-52
2023/01/16 14:11:58;;;;;;;3.77;2.20;;;5.20;99.90;;;;;;5073932;28;20450;-50
2023/01/16 14:18:04;;;;;;;5.10;1.03;;;5.10;99.90;;;;;;5017024;28;20419;-50
2023/01/16 14:20:43;;;;;;;2.73;1.30;;;5.10;99.90;;;;;;5073513;28;20433;-52
2023/01/16 14:26:07;;;;;;;2.30;1.60;;;5.20;99.90;;;;;;5072827;28;20952;-52
2023/01/16 14:28:35;;;;;;;1.00;0.63;;;5.30;99.90;;;;;;5074455;28;20957;-52
2023/01/16 14:31:03;;;;;;;1.40;0.60;;;5.40;99.90;;;;;;5073423;28;20471;-51